Time;durP1;ratioP1;P1;durP2;ratioP2;P2;SDS_P1;SDS_P2;PMS_P1;PMS_P2;Temp;Humidity;BMP_temperature;BMP_pressure;BME280_temperature;BME280_humidity;BME280_pressure;Samples;Min_cycle;Max_cycle;Signal;HPM_P1;HPM_P2
2021/09/28 00:01:08;;;;;;;973.72;867.47;;;;;;;;;;5006425;28;20101;-78
2021/09/28 00:03:34;;;;;;;964.97;859.15;;;;;;;;;;5003667;28;20026;-79
2021/09/28 00:06:00;;;;;;;974.58;868.40;;;;;;;;;;5008452;28;20048;-79
2021/09/28 00:08:26;;;;;;;965.40;859.63;;;;;;;;;;5005485;28;20172;-79
2021/09/28 00:10:52;;;;;;;965.53;859.70;;;;;;;;;;5006015;28;20036;-79
2021/09/28 00:13:19;;;;;;;966.47;860.90;;;;;;;;;;5005986;28;20030;-79
2021/09/28 00:15:45;;;;;;;962.08;856.35;;;;;;;;;;5007465;28;20068;-78
2021/09/28 00:18:11;;;;;;;960.90;855.15;;;;;;;;;;5006555;28;20026;-79
2021/09/28 00:20:39;;;;;;;953.47;848.08;;;;;;;;;;5005727;28;20062;-80
2021/09/28 00:23:13;;;;;;;956.35;850.42;;;;;;;;;;5006755;28;20402;-78
2021/09/28 00:25:39;;;;;;;956.63;849.40;;;;;;;;;;5005655;28;20026;-78
2021/09/28 00:28:05;;;;;;;959.90;854.15;;;;;;;;;;5007022;28;20048;-78
2021/09/28 00:30:31;;;;;;;966.05;860.00;;;;;;;;;;5007161;28;20041;-78
2021/09/28 00:32:57;;;;;;;960.58;854.40;;;;;;;;;;5004983;28;20510;-79
2021/09/28 00:35:23;;;;;;;966.85;860.22;;;;;;;;;;5007072;28;20442;-79
2021/09/28 00:37:49;;;;;;;962.08;856.25;;;;;;;;;;5006148;28;20029;-79
2021/09/28 00:40:15;;;;;;;959.58;853.92;;;;;;;;;;5005194;28;20037;-79
2021/09/28 00:42:41;;;;;;;958.10;852.40;;;;;;;;;;5005977;28;20452;-79
2021/09/28 00:45:10;;;;;;;956.97;851.15;;;;;;;;;;5004768;28;20036;-78
2021/09/28 00:47:37;;;;;;;956.17;850.70;;;;;;;;;;5006635;28;20413;-77
2021/09/28 00:50:03;;;;;;;953.58;847.50;;;;;;;;;;5004461;28;20087;-79
2021/09/28 00:52:31;;;;;;;962.88;856.90;;;;;;;;;;5005638;28;20087;-78
2021/09/28 00:54:57;;;;;;;948.72;841.83;;;;;;;;;;5005010;28;20114;-80
2021/09/28 00:57:23;;;;;;;950.75;843.88;;;;;;;;;;5006641;28;20053;-79
2021/09/28 00:59:50;;;;;;;946.40;839.45;;;;;;;;;;5005945;28;20033;-79
2021/09/28 01:02:16;;;;;;;953.42;847.25;;;;;;;;;;5005349;28;20033;-77
2021/09/28 01:04:42;;;;;;;952.25;845.83;;;;;;;;;;5005850;28;20041;-79
2021/09/28 01:07:09;;;;;;;956.17;850.28;;;;;;;;;;5009690;28;20464;-80
2021/09/28 01:09:36;;;;;;;953.53;847.47;;;;;;;;;;5008528;28;20559;-79
2021/09/28 01:12:02;;;;;;;948.00;840.92;;;;;;;;;;5009352;28;20042;-80
2021/09/28 01:14:30;;;;;;;952.92;842.92;;;;;;;;;;5011050;28;20030;-79
2021/09/28 01:16:56;;;;;;;948.03;838.88;;;;;;;;;;5011211;28;20029;-79
2021/09/28 01:19:22;;;;;;;959.65;853.63;;;;;;;;;;5008494;28;20385;-79
2021/09/28 01:21:49;;;;;;;946.90;838.22;;;;;;;;;;5009027;28;20117;-80
2021/09/28 01:24:15;;;;;;;952.88;844.65;;;;;;;;;;5010378;28;20085;-79
2021/09/28 01:26:41;;;;;;;952.58;846.70;;;;;;;;;;5008134;28;20026;-78
2021/09/28 01:29:07;;;;;;;949.42;841.55;;;;;;;;;;5016815;28;20025;-79
2021/09/28 01:31:34;;;;;;;949.40;842.15;;;;;;;;;;5009019;28;20042;-79
2021/09/28 01:34:00;;;;;;;947.55;837.97;;;;;;;;;;5007881;28;20156;-80
2021/09/28 01:36:26;;;;;;;949.22;840.63;;;;;;;;;;5008660;28;20050;-79
2021/09/28 01:38:52;;;;;;;945.28;833.40;;;;;;;;;;5008046;28;20065;-79
2021/09/28 01:41:18;;;;;;;943.95;833.88;;;;;;;;;;5007904;28;20426;-79
2021/09/28 01:43:44;;;;;;;946.33;833.28;;;;;;;;;;5010365;28;20109;-79
2021/09/28 01:46:10;;;;;;;944.60;832.42;;;;;;;;;;5008401;28;20048;-79
2021/09/28 01:48:41;;;;;;;946.53;839.05;;;;;;;;;;5009244;28;20109;-79
2021/09/28 01:51:07;;;;;;;941.92;827.80;;;;;;;;;;5008186;28;20033;-79
2021/09/28 01:53:33;;;;;;;944.03;831.58;;;;;;;;;;5008991;28;20038;-79
2021/09/28 01:55:59;;;;;;;942.22;828.97;;;;;;;;;;5008563;28;20096;-78
2021/09/28 01:58:25;;;;;;;942.08;827.97;;;;;;;;;;5007395;28;20154;-79
2021/09/28 02:00:51;;;;;;;942.42;829.53;;;;;;;;;;5008560;28;20076;-78
2021/09/28 02:03:17;;;;;;;942.92;832.58;;;;;;;;;;5006104;28;20482;-80
2021/09/28 02:05:43;;;;;;;939.78;820.25;;;;;;;;;;5013019;28;20026;-79
2021/09/28 02:08:09;;;;;;;938.80;821.35;;;;;;;;;;5009322;28;20462;-79
2021/09/28 02:10:35;;;;;;;941.63;827.70;;;;;;;;;;5007887;28;20036;-79
2021/09/28 02:13:02;;;;;;;938.58;819.83;;;;;;;;;;5008841;28;20109;-80
2021/09/28 02:15:28;;;;;;;937.60;818.97;;;;;;;;;;5009061;28;20030;-78
2021/09/28 02:17:54;;;;;;;938.10;818.10;;;;;;;;;;5009173;28;20049;-79
2021/09/28 02:20:20;;;;;;;940.45;824.15;;;;;;;;;;5006928;28;20030;-79
2021/09/28 02:22:46;;;;;;;950.70;822.90;;;;;;;;;;5012786;28;20032;-79
2021/09/28 02:25:13;;;;;;;941.28;828.28;;;;;;;;;;5009051;28;20457;-78
2021/09/28 02:27:39;;;;;;;942.70;828.33;;;;;;;;;;5009284;28;20522;-80
2021/09/28 02:30:06;;;;;;;942.08;827.00;;;;;;;;;;5006735;28;20498;-79
2021/09/28 02:32:32;;;;;;;942.67;829.38;;;;;;;;;;5007022;28;20431;-80
2021/09/28 02:34:58;;;;;;;939.22;817.35;;;;;;;;;;5007816;28;20100;-76
2021/09/28 02:37:24;;;;;;;939.50;824.45;;;;;;;;;;5008160;28;20064;-80
2021/09/28 02:39:50;;;;;;;935.70;813.78;;;;;;;;;;5010515;28;20029;-78
2021/09/28 02:42:16;;;;;;;937.03;812.67;;;;;;;;;;5007953;28;20024;-79
2021/09/28 02:44:42;;;;;;;934.50;808.38;;;;;;;;;;5008121;28;20037;-80
2021/09/28 02:47:08;;;;;;;933.58;808.15;;;;;;;;;;5008905;28;20029;-79
2021/09/28 02:49:34;;;;;;;934.40;807.50;;;;;;;;;;5007656;28;20053;-80
2021/09/28 02:52:00;;;;;;;932.63;802.10;;;;;;;;;;5007084;28;20037;-79
2021/09/28 02:54:26;;;;;;;935.25;807.75;;;;;;;;;;5007409;28;20238;-78
2021/09/28 02:56:53;;;;;;;931.72;802.78;;;;;;;;;;5014306;28;20148;-80
2021/09/28 02:59:19;;;;;;;935.67;808.97;;;;;;;;;;5007046;28;20026;-80
2021/09/28 03:01:45;;;;;;;935.58;808.63;;;;;;;;;;5006988;28;20096;-79
2021/09/28 03:04:11;;;;;;;929.63;791.83;;;;;;;;;;5006241;28;20036;-79
2021/09/28 03:06:37;;;;;;;933.95;798.55;;;;;;;;;;5008496;28;20390;-79
2021/09/28 03:09:03;;;;;;;935.08;805.83;;;;;;;;;;5007694;28;20100;-80
2021/09/28 03:11:30;;;;;;;936.13;803.00;;;;;;;;;;5008372;28;20496;-77
2021/09/28 03:13:56;;;;;;;932.50;803.35;;;;;;;;;;5006877;28;20113;-79
2021/09/28 03:16:22;;;;;;;930.88;797.60;;;;;;;;;;5007022;28;20525;-79
2021/09/28 03:18:48;;;;;;;929.63;795.45;;;;;;;;;;5008138;28;20030;-80
2021/09/28 03:21:14;;;;;;;928.78;799.13;;;;;;;;;;5008220;28;20370;-79
2021/09/28 03:23:40;;;;;;;930.17;798.00;;;;;;;;;;5007651;28;20040;-79
2021/09/28 03:26:06;;;;;;;928.00;790.30;;;;;;;;;;5007581;28;20056;-79
2021/09/28 03:28:32;;;;;;;927.97;792.45;;;;;;;;;;5008727;28;20070;-79
2021/09/28 03:30:59;;;;;;;930.65;801.38;;;;;;;;;;5006006;28;20560;-80
2021/09/28 03:33:25;;;;;;;927.50;797.00;;;;;;;;;;5004567;28;20025;-80
2021/09/28 03:35:51;;;;;;;928.33;794.17;;;;;;;;;;5007292;28;20034;-79
2021/09/28 03:38:17;;;;;;;934.53;807.40;;;;;;;;;;5008072;28;20033;-79
2021/09/28 03:40:43;;;;;;;931.63;800.70;;;;;;;;;;5007932;28;20030;-80
2021/09/28 03:43:09;;;;;;;933.72;802.70;;;;;;;;;;5006869;28;20030;-79
2021/09/28 03:45:36;;;;;;;927.20;793.53;;;;;;;;;;5007070;28;20034;-80
2021/09/28 03:48:02;;;;;;;930.88;795.28;;;;;;;;;;5009376;28;20103;-79
2021/09/28 03:50:28;;;;;;;927.80;792.45;;;;;;;;;;5007838;28;20524;-80
2021/09/28 03:52:55;;;;;;;932.22;801.15;;;;;;;;;;5006426;28;20034;-80
2021/09/28 03:55:21;;;;;;;931.63;798.53;;;;;;;;;;5005731;28;20470;-80
2021/09/28 03:57:51;;;;;;;929.53;798.45;;;;;;;;;;5007167;28;20120;-80
2021/09/28 04:00:18;;;;;;;928.35;792.42;;;;;;;;;;5006371;28;20731;-80
2021/09/28 04:02:44;;;;;;;928.55;787.15;;;;;;;;;;5005321;28;20034;-81
2021/09/28 04:05:10;;;;;;;926.83;793.22;;;;;;;;;;5007942;28;20037;-79
2021/09/28 04:07:37;;;;;;;932.92;794.42;;;;;;;;;;5006418;28;20034;-80
2021/09/28 04:10:04;;;;;;;931.70;791.45;;;;;;;;;;5006443;28;20073;-80
2021/09/28 04:12:30;;;;;;;934.20;800.72;;;;;;;;;;5005762;28;20034;-79
2021/09/28 04:14:58;;;;;;;931.70;792.38;;;;;;;;;;5004766;28;20482;-80
2021/09/28 04:17:24;;;;;;;935.13;794.50;;;;;;;;;;5007077;28;20113;-80
2021/09/28 04:19:50;;;;;;;933.95;795.25;;;;;;;;;;5006374;28;20109;-79
2021/09/28 04:22:16;;;;;;;937.53;802.10;;;;;;;;;;5005578;28;20121;-80
2021/09/28 04:24:42;;;;;;;937.50;799.33;;;;;;;;;;5005409;28;20501;-80
2021/09/28 04:27:08;;;;;;;941.05;804.58;;;;;;;;;;5007236;28;20038;-80
2021/09/28 04:29:34;;;;;;;938.42;800.28;;;;;;;;;;5006702;28;20413;-80
2021/09/28 04:32:00;;;;;;;940.05;800.90;;;;;;;;;;5006031;28;20022;-79
2021/09/28 04:34:26;;;;;;;938.70;801.10;;;;;;;;;;5002806;28;20037;-79
2021/09/28 04:36:52;;;;;;;938.40;801.13;;;;;;;;;;5009736;28;20109;-80
2021/09/28 04:39:18;;;;;;;933.78;790.33;;;;;;;;;;5007972;28;20022;-79
2021/09/28 04:41:44;;;;;;;931.35;783.90;;;;;;;;;;5030711;28;20124;-80
2021/09/28 04:44:10;;;;;;;938.78;794.50;;;;;;;;;;5007648;28;20080;-79
2021/09/28 04:46:36;;;;;;;936.72;792.42;;;;;;;;;;5007328;28;20072;-80
2021/09/28 04:49:02;;;;;;;940.78;798.60;;;;;;;;;;5006400;28;20543;-79
2021/09/28 04:51:28;;;;;;;938.50;800.33;;;;;;;;;;5005156;28;20038;-80
2021/09/28 04:53:54;;;;;;;943.33;804.85;;;;;;;;;;5005318;28;20117;-79
2021/09/28 04:56:20;;;;;;;939.08;797.28;;;;;;;;;;5005554;28;20030;-79
2021/09/28 04:58:47;;;;;;;942.60;797.78;;;;;;;;;;5006703;28;20044;-78
2021/09/28 05:01:13;;;;;;;940.92;797.05;;;;;;;;;;5006930;28;20429;-79
2021/09/28 05:03:39;;;;;;;943.80;802.20;;;;;;;;;;5004905;28;20100;-79
2021/09/28 05:06:05;;;;;;;945.00;799.90;;;;;;;;;;5005705;28;20057;-79
2021/09/28 05:08:31;;;;;;;941.80;795.22;;;;;;;;;;5006501;28;20106;-80
2021/09/28 05:10:57;;;;;;;946.58;802.50;;;;;;;;;;5007284;28;20405;-80
2021/09/28 05:13:23;;;;;;;944.67;801.40;;;;;;;;;;5011827;28;20026;-80
2021/09/28 05:15:49;;;;;;;937.15;786.67;;;;;;;;;;5007068;28;20029;-80
2021/09/28 05:18:15;;;;;;;941.40;791.92;;;;;;;;;;5007157;28;20037;-80
2021/09/28 05:20:41;;;;;;;946.65;806.40;;;;;;;;;;5003462;28;20100;-79
2021/09/28 05:23:07;;;;;;;940.03;790.05;;;;;;;;;;4999119;28;20030;-80
2021/09/28 05:25:33;;;;;;;940.05;790.78;;;;;;;;;;5007332;28;20109;-80
2021/09/28 05:27:59;;;;;;;940.58;793.75;;;;;;;;;;5006924;28;20596;-81
2021/09/28 05:30:25;;;;;;;943.10;796.95;;;;;;;;;;5005676;28;20042;-80
2021/09/28 05:32:51;;;;;;;943.28;795.28;;;;;;;;;;5004082;28;20036;-80
2021/09/28 05:35:17;;;;;;;941.95;792.65;;;;;;;;;;5002514;28;20025;-80
2021/09/28 05:37:43;;;;;;;940.45;794.38;;;;;;;;;;5005407;28;20037;-80
2021/09/28 05:40:09;;;;;;;945.13;795.83;;;;;;;;;;5003708;28;20172;-80
2021/09/28 05:42:36;;;;;;;940.65;789.90;;;;;;;;;;5004203;28;20030;-79
2021/09/28 05:45:03;;;;;;;948.15;797.53;;;;;;;;;;5007011;28;20385;-80
2021/09/28 05:47:29;;;;;;;942.40;791.00;;;;;;;;;;5005452;28;20030;-80
2021/09/28 05:49:55;;;;;;;948.00;800.85;;;;;;;;;;5004229;28;20334;-80
2021/09/28 05:52:21;;;;;;;949.92;813.20;;;;;;;;;;5008661;28;20030;-80
2021/09/28 05:54:47;;;;;;;949.13;797.78;;;;;;;;;;5008610;28;20041;-79
2021/09/28 05:57:21;;;;;;;941.92;793.10;;;;;;;;;;5008609;28;20045;-79
2021/09/28 05:59:47;;;;;;;944.58;797.00;;;;;;;;;;5007809;28;20374;-79
2021/09/28 06:02:14;;;;;;;942.67;795.63;;;;;;;;;;5013072;28;20040;-80
2021/09/28 06:04:40;;;;;;;940.00;789.25;;;;;;;;;;5004380;28;20026;-79
2021/09/28 06:07:06;;;;;;;942.33;793.95;;;;;;;;;;5010038;28;20090;-80
2021/09/28 06:09:36;;;;;;;946.38;803.47;;;;;;;;;;5006764;28;20124;-80
2021/09/28 06:12:05;;;;;;;946.10;797.33;;;;;;;;;;5008236;28;20036;-75
2021/09/28 06:14:32;;;;;;;937.40;783.85;;;;;;;;;;5002015;28;20036;-81
2021/09/28 06:16:58;;;;;;;942.05;788.33;;;;;;;;;;5008689;28;20026;-80
2021/09/28 06:19:24;;;;;;;943.25;803.03;;;;;;;;;;5010277;28;20103;-78
2021/09/28 06:21:50;;;;;;;941.75;796.88;;;;;;;;;;5007877;28;20029;-81
2021/09/28 06:24:17;;;;;;;947.85;808.65;;;;;;;;;;5009793;28;20033;-81
2021/09/28 06:26:44;;;;;;;942.17;802.00;;;;;;;;;;5008543;28;20038;-81
2021/09/28 06:29:10;;;;;;;942.05;801.83;;;;;;;;;;5009625;28;20029;-81
2021/09/28 06:31:36;;;;;;;944.03;808.42;;;;;;;;;;5003161;28;20124;-79
2021/09/28 06:34:02;;;;;;;950.05;822.58;;;;;;;;;;5006401;28;20410;-81
2021/09/28 06:36:28;;;;;;;955.03;832.63;;;;;;;;;;5008549;28;20369;-81
2021/09/28 06:38:54;;;;;;;953.92;835.08;;;;;;;;;;5008926;28;20041;-82
2021/09/28 06:41:20;;;;;;;949.65;823.13;;;;;;;;;;5008704;28;20025;-80
2021/09/28 06:43:46;;;;;;;950.67;830.08;;;;;;;;;;5008532;28;20608;-81
2021/09/28 06:46:12;;;;;;;956.88;840.17;;;;;;;;;;5008362;28;20072;-80
2021/09/28 06:48:38;;;;;;;953.85;840.47;;;;;;;;;;5009119;28;20044;-81
2021/09/28 06:51:04;;;;;;;953.58;845.90;;;;;;;;;;5007067;28;20018;-81
2021/09/28 06:53:30;;;;;;;951.67;836.50;;;;;;;;;;5010106;28;20037;-82
2021/09/28 06:55:56;;;;;;;951.60;835.60;;;;;;;;;;5005280;28;20122;-79
2021/09/28 06:58:22;;;;;;;963.45;855.53;;;;;;;;;;5008189;28;20052;-80
2021/09/28 07:00:50;;;;;;;956.97;848.25;;;;;;;;;;5006308;28;20033;-81
2021/09/28 07:03:16;;;;;;;950.47;838.40;;;;;;;;;;5006072;28;20025;-78
2021/09/28 07:05:42;;;;;;;960.28;853.17;;;;;;;;;;4998129;28;20324;-80
2021/09/28 07:08:08;;;;;;;965.30;858.63;;;;;;;;;;5008067;28;20026;-81
2021/09/28 07:10:34;;;;;;;937.15;804.20;;;;;;;;;;5015579;28;20033;-80
2021/09/28 07:13:00;;;;;;;965.90;859.60;;;;;;;;;;5009074;28;20029;-80
2021/09/28 07:15:26;;;;;;;981.70;874.40;;;;;;;;;;5006936;28;20038;-81
2021/09/28 07:17:54;;;;;;;994.88;887.15;;;;;;;;;;5007977;28;20482;-80
2021/09/28 07:20:21;;;;;;;1006.85;898.45;;;;;;;;;;5007296;28;20050;-79
2021/09/28 07:22:47;;;;;;;1006.25;897.92;;;;;;;;;;4997850;28;20027;-80
2021/09/28 07:25:13;;;;;;;1010.75;902.70;;;;;;;;;;5004117;28;20513;-80
2021/09/28 07:27:39;;;;;;;1004.88;896.83;;;;;;;;;;5013562;28;20083;-82
2021/09/28 07:30:06;;;;;;;1025.60;916.67;;;;;;;;;;5006102;28;20038;-82
2021/09/28 07:32:32;;;;;;;1026.97;918.13;;;;;;;;;;5003282;28;20125;-80
2021/09/28 07:34:58;;;;;;;1024.95;916.47;;;;;;;;;;5010525;28;20045;-80
2021/09/28 07:37:27;;;;;;;1038.07;928.70;;;;;;;;;;5008932;28;20026;-80
2021/09/28 07:39:54;;;;;;;1045.53;935.90;;;;;;;;;;5006322;28;20025;-81
2021/09/28 07:42:20;;;;;;;1021.30;913.15;;;;;;;;;;5003189;28;20509;-81
2021/09/28 07:44:47;;;;;;;1047.35;937.63;;;;;;;;;;5007800;28;20141;-81
2021/09/28 07:47:13;;;;;;;1026.35;918.10;;;;;;;;;;5008452;28;20041;-82
2021/09/28 07:49:40;;;;;;;1051.68;941.95;;;;;;;;;;5009073;28;20026;-79
2021/09/28 07:52:06;;;;;;;1051.57;941.63;;;;;;;;;;5003871;28;20544;-81
2021/09/28 07:54:34;;;;;;;1059.43;949.22;;;;;;;;;;5004926;28;20046;-80
2021/09/28 07:57:01;;;;;;;1031.60;922.97;;;;;;;;;;5005580;28;20373;-79
2021/09/28 07:59:26;;;;;;;1043.07;933.53;;;;;;;;;;5039007;28;20026;-81
2021/09/28 08:01:52;;;;;;;1051.70;941.60;;;;;;;;;;5006648;28;20441;-79
2021/09/28 08:04:20;;;;;;;1039.68;930.30;;;;;;;;;;5003452;28;20383;-80
2021/09/28 08:06:46;;;;;;;1025.47;916.85;;;;;;;;;;5004316;28;20514;-80
2021/09/28 08:09:12;;;;;;;1041.28;931.72;;;;;;;;;;5004348;28;20290;-79
2021/09/28 08:11:38;;;;;;;1032.93;924.20;;;;;;;;;;5002416;28;20041;-76
2021/09/28 08:14:04;;;;;;;1031.20;922.45;;;;;;;;;;5005162;28;20041;-81
2021/09/28 08:16:30;;;;;;;1046.75;937.17;;;;;;;;;;5008921;28;20058;-80
2021/09/28 08:18:56;;;;;;;1036.03;927.03;;;;;;;;;;5009371;28;20026;-83
2021/09/28 08:21:22;;;;;;;1042.43;933.08;;;;;;;;;;5001034;28;20041;-78
2021/09/28 08:23:49;;;;;;;1053.20;943.70;;;;;;;;;;5008888;28;20037;-77
2021/09/28 08:29:10;;;;;;;1056.15;946.22;;;;;;;;;;5005977;28;20041;-80
2021/09/28 08:31:40;;;;;;;1056.72;947.20;;;;;;;;;;5009061;28;20351;-80
2021/09/28 08:34:07;;;;;;;1058.15;948.47;;;;;;;;;;5019936;28;20033;-81
2021/09/28 08:36:34;;;;;;;1085.53;974.30;;;;;;;;;;5007446;28;20117;-82
2021/09/28 08:39:01;;;;;;;1086.05;975.08;;;;;;;;;;5003843;28;20381;-83
2021/09/28 08:41:27;;;;;;;1087.10;976.50;;;;;;;;;;5007515;28;20458;-82
2021/09/28 08:43:53;;;;;;;1089.72;979.20;;;;;;;;;;5004699;28;20037;-80
2021/09/28 08:46:19;;;;;;;1097.38;986.13;;;;;;;;;;5006744;28;20040;-82
2021/09/28 08:48:46;;;;;;;1097.53;986.58;;;;;;;;;;5004625;28;20029;-82
2021/09/28 08:51:12;;;;;;;1104.55;993.15;;;;;;;;;;5006030;28;20022;-81
2021/09/28 08:53:39;;;;;;;1108.70;996.05;;;;;;;;;;5009542;28;20500;-78
2021/09/28 08:56:05;;;;;;;1108.22;996.00;;;;;;;;;;5006441;28;20385;-79
2021/09/28 08:58:31;;;;;;;1108.20;996.13;;;;;;;;;;5006632;28;20525;-80
2021/09/28 09:01:04;;;;;;;1102.63;992.22;;;;;;;;;;5006224;28;20084;-79
2021/09/28 09:03:32;;;;;;;1113.68;998.55;;;;;;;;;;5002296;28;20030;-80
2021/09/28 09:05:58;;;;;;;1107.05;995.75;;;;;;;;;;5005496;28;20367;-81
2021/09/28 09:08:25;;;;;;;1107.35;995.75;;;;;;;;;;5006746;28;20041;-82
2021/09/28 09:11:12;;;;;;;1129.45;999.90;;;;;;;;;;5005647;28;20433;-80
2021/09/28 09:13:38;;;;;;;1117.68;999.53;;;;;;;;;;5004154;28;20371;-80
2021/09/28 09:16:05;;;;;;;1119.72;999.90;;;;;;;;;;5004952;28;20080;-79
2021/09/28 09:18:35;;;;;;;1116.55;999.20;;;;;;;;;;5004422;28;20654;-81
2021/09/28 09:21:03;;;;;;;1112.25;997.92;;;;;;;;;;5002301;28;20044;-82
2021/09/28 09:23:35;;;;;;;1116.15;999.33;;;;;;;;;;4998840;28;20060;-83
2021/09/28 09:26:04;;;;;;;1118.20;999.90;;;;;;;;;;5005904;28;20410;-79
2021/09/28 09:28:34;;;;;;;1124.28;999.90;;;;;;;;;;5009622;28;20030;-77
2021/09/28 09:31:07;;;;;;;1116.88;999.17;;;;;;;;;;5008243;28;20120;-78
2021/09/28 09:33:33;;;;;;;1120.22;999.90;;;;;;;;;;5004035;28;20088;-78
2021/09/28 09:35:59;;;;;;;1144.50;999.90;;;;;;;;;;5009789;28;20500;-79
2021/09/28 09:38:25;;;;;;;1145.88;999.90;;;;;;;;;;5006992;28;20044;-79
2021/09/28 09:40:52;;;;;;;1159.70;999.90;;;;;;;;;;5007632;28;20029;-78
2021/09/28 09:43:34;;;;;;;1162.75;999.90;;;;;;;;;;5013211;28;20080;-78
2021/09/28 09:46:07;;;;;;;1134.03;999.90;;;;;;;;;;5009603;28;20537;-79
2021/09/28 09:48:35;;;;;;;1158.63;999.90;;;;;;;;;;5007802;28;20478;-79
2021/09/28 09:51:07;;;;;;;1157.35;999.90;;;;;;;;;;5020995;28;20457;-78
2021/09/28 09:53:37;;;;;;;1163.13;999.90;;;;;;;;;;5010510;28;20045;-79
2021/09/28 09:56:04;;;;;;;1150.85;999.90;;;;;;;;;;5009975;28;20026;-80
2021/09/28 09:58:31;;;;;;;1161.05;999.90;;;;;;;;;;5008591;28;20057;-81
2021/09/28 10:00:58;;;;;;;1156.82;999.90;;;;;;;;;;5011018;28;20072;-78
2021/09/28 10:03:24;;;;;;;1153.85;999.90;;;;;;;;;;5005444;28;20026;-79
2021/09/28 10:05:50;;;;;;;1153.57;999.90;;;;;;;;;;5006603;28;20470;-80
2021/09/28 10:08:16;;;;;;;1158.72;999.90;;;;;;;;;;5008900;28;20433;-81
2021/09/28 10:10:43;;;;;;;1158.97;999.90;;;;;;;;;;5004212;28;20444;-82
2021/09/28 10:13:29;;;;;;;1144.65;999.90;;;;;;;;;;5008206;28;20045;-81
2021/09/28 10:16:13;;;;;;;1153.47;999.90;;;;;;;;;;5001874;28;20504;-79
2021/09/28 10:18:41;;;;;;;1150.35;999.90;;;;;;;;;;5013215;28;20112;-78
2021/09/28 10:21:26;;;;;;;1150.63;999.90;;;;;;;;;;5005323;28;20058;-79
2021/09/28 10:24:12;;;;;;;1147.50;999.90;;;;;;;;;;5005597;28;20529;-79
2021/09/28 10:26:38;;;;;;;1145.25;999.90;;;;;;;;;;4993736;28;20371;-80
2021/09/28 10:29:24;;;;;;;1144.97;999.90;;;;;;;;;;5002205;28;20037;-78
2021/09/28 10:31:53;;;;;;;1141.15;999.90;;;;;;;;;;4999883;28;20030;-79
2021/09/28 10:34:19;;;;;;;1149.30;999.90;;;;;;;;;;5004388;28;20441;-79
2021/09/28 10:36:52;;;;;;;1149.38;999.90;;;;;;;;;;5006383;28;20022;-79
2021/09/28 10:39:37;;;;;;;1150.50;999.90;;;;;;;;;;5005716;28;20044;-80
2021/09/28 10:42:03;;;;;;;1148.25;999.90;;;;;;;;;;5008414;28;20018;-79
2021/09/28 10:44:31;;;;;;;1148.65;999.90;;;;;;;;;;5005544;28;20056;-79
2021/09/28 10:46:58;;;;;;;1148.63;999.90;;;;;;;;;;5031362;28;20034;-79
2021/09/28 10:49:28;;;;;;;1134.32;999.90;;;;;;;;;;5008202;28;20061;-79
2021/09/28 10:52:14;;;;;;;1149.57;999.90;;;;;;;;;;5009117;28;20095;-77
2021/09/28 10:54:59;;;;;;;1152.55;999.90;;;;;;;;;;4987072;28;20359;-78
2021/09/28 10:57:45;;;;;;;1163.05;999.90;;;;;;;;;;5009488;28;20107;-77
2021/09/28 11:00:11;;;;;;;1151.88;999.90;;;;;;;;;;5002631;28;20066;-77
2021/09/28 11:02:51;;;;;;;1165.07;999.90;;;;;;;;;;5001501;28;20076;-80
2021/09/28 11:05:32;;;;;;;1157.28;999.90;;;;;;;;;;5000262;28;20449;-80
2021/09/28 11:07:58;;;;;;;1160.10;999.90;;;;;;;;;;5005227;28;20447;-79
2021/09/28 11:10:24;;;;;;;1165.93;999.90;;;;;;;;;;4999838;28;20460;-78
2021/09/28 11:12:50;;;;;;;1168.68;999.90;;;;;;;;;;5005570;28;20400;-78
2021/09/28 11:15:20;;;;;;;1178.28;999.90;;;;;;;;;;5004377;28;20026;-79
2021/09/28 11:17:47;;;;;;;1168.57;999.90;;;;;;;;;;5004031;28;20036;-79
2021/09/28 11:20:26;;;;;;;1176.60;999.90;;;;;;;;;;5004536;28;20049;-78
2021/09/28 11:23:01;;;;;;;1183.60;999.90;;;;;;;;;;5004653;28;20041;-79
2021/09/28 11:25:27;;;;;;;1187.90;999.90;;;;;;;;;;5007402;28;20528;-78
2021/09/28 11:28:10;;;;;;;1189.38;999.90;;;;;;;;;;4999294;28;20053;-78
2021/09/28 11:30:41;;;;;;;1186.93;999.90;;;;;;;;;;5002063;28;20018;-76
2021/09/28 11:33:08;;;;;;;1197.70;999.90;;;;;;;;;;5002904;28;20498;-77
2021/09/28 11:35:35;;;;;;;1194.82;999.90;;;;;;;;;;5002802;28;20470;-75
2021/09/28 11:38:03;;;;;;;1199.18;999.90;;;;;;;;;;5019021;28;20737;-75
2021/09/28 11:40:36;;;;;;;1197.47;999.90;;;;;;;;;;5007461;28;20062;-75
2021/09/28 11:43:19;;;;;;;1203.20;999.90;;;;;;;;;;5004885;28;20069;-76
2021/09/28 11:45:46;;;;;;;1196.07;999.90;;;;;;;;;;5002711;28;20105;-75
2021/09/28 11:48:12;;;;;;;1200.45;999.90;;;;;;;;;;4995946;28;20033;-76
2021/09/28 11:50:39;;;;;;;1205.10;999.90;;;;;;;;;;5004692;28;20375;-76
2021/09/28 11:53:08;;;;;;;1206.15;999.90;;;;;;;;;;5000171;28;20030;-76
2021/09/28 11:55:34;;;;;;;1204.00;999.90;;;;;;;;;;5005960;28;20428;-76
2021/09/28 11:58:02;;;;;;;1205.32;999.90;;;;;;;;;;5006317;28;20068;-77
2021/09/28 12:00:28;;;;;;;1206.00;999.90;;;;;;;;;;5004511;28;20330;-75
2021/09/28 12:03:09;;;;;;;1203.00;999.90;;;;;;;;;;5003798;28;20267;-77
2021/09/28 12:08:23;;;;;;;1199.70;999.90;;;;;;;;;;4999173;28;20038;-77
2021/09/28 12:10:51;;;;;;;1202.50;999.90;;;;;;;;;;5005167;28;20053;-76
2021/09/28 12:13:20;;;;;;;1210.53;999.90;;;;;;;;;;5004564;28;20044;-77
2021/09/28 12:16:03;;;;;;;1223.78;999.90;;;;;;;;;;5028832;28;20045;-77
2021/09/28 12:18:30;;;;;;;1215.80;999.90;;;;;;;;;;5003551;28;20022;-79
2021/09/28 12:21:16;;;;;;;1216.32;999.90;;;;;;;;;;4997405;28;20029;-78
2021/09/28 12:23:43;;;;;;;1226.32;999.90;;;;;;;;;;4998059;28;20022;-78
2021/09/28 12:26:25;;;;;;;1216.55;999.90;;;;;;;;;;4997235;28;20354;-76
2021/09/28 12:28:51;;;;;;;1216.03;999.90;;;;;;;;;;5015734;28;20247;-78
2021/09/28 12:31:31;;;;;;;1215.15;999.90;;;;;;;;;;5010223;28;20441;-76
2021/09/28 12:33:58;;;;;;;1204.60;999.90;;;;;;;;;;4999042;28;20295;-78
2021/09/28 12:36:24;;;;;;;1211.63;999.90;;;;;;;;;;4999877;28;20029;-79
2021/09/28 12:39:09;;;;;;;1220.40;999.90;;;;;;;;;;5003824;28;20022;-77
2021/09/28 12:41:54;;;;;;;1213.93;999.90;;;;;;;;;;5005532;28;20026;-78
2021/09/28 12:44:24;;;;;;;1209.47;999.90;;;;;;;;;;5002518;28;20040;-77
2021/09/28 12:46:50;;;;;;;1204.30;999.90;;;;;;;;;;5002364;28;20116;-76
2021/09/28 12:49:29;;;;;;;1210.05;999.90;;;;;;;;;;5010189;28;20093;-77
2021/09/28 12:51:57;;;;;;;1206.43;999.90;;;;;;;;;;5007438;28;20208;-76
2021/09/28 12:54:23;;;;;;;1211.88;999.90;;;;;;;;;;5006218;28;20041;-79
2021/09/28 12:56:50;;;;;;;1210.40;999.90;;;;;;;;;;5003541;28;20046;-76
2021/09/28 12:59:16;;;;;;;1214.72;999.90;;;;;;;;;;4997298;28;20178;-77
2021/09/28 13:01:43;;;;;;;1216.15;999.90;;;;;;;;;;5007867;28;20038;-76
2021/09/28 13:04:12;;;;;;;1216.35;999.90;;;;;;;;;;5006499;28;20512;-77
2021/09/28 13:06:43;;;;;;;1216.68;999.90;;;;;;;;;;5010920;28;20108;-77
2021/09/28 13:09:09;;;;;;;1208.07;999.90;;;;;;;;;;5005438;28;20037;-78
2021/09/28 13:11:35;;;;;;;1221.38;999.90;;;;;;;;;;5007603;28;20041;-79
2021/09/28 13:14:01;;;;;;;1220.55;999.90;;;;;;;;;;5006459;28;20026;-78
2021/09/28 13:16:27;;;;;;;1214.28;999.90;;;;;;;;;;5006056;28;20033;-77
2021/09/28 13:18:54;;;;;;;1214.72;999.90;;;;;;;;;;5026077;28;20033;-78
2021/09/28 13:21:20;;;;;;;1227.88;999.90;;;;;;;;;;5006372;28;20029;-77
2021/09/28 13:23:46;;;;;;;1220.32;999.90;;;;;;;;;;5009890;28;20104;-78
2021/09/28 13:26:12;;;;;;;1225.63;999.90;;;;;;;;;;5006297;28;20495;-77
2021/09/28 13:28:38;;;;;;;1221.93;999.90;;;;;;;;;;5009912;28;20030;-77
2021/09/28 13:31:04;;;;;;;1221.63;999.90;;;;;;;;;;5006189;28;20254;-78
2021/09/28 13:33:30;;;;;;;1229.63;999.90;;;;;;;;;;5006507;28;20050;-78
2021/09/28 13:35:56;;;;;;;1229.93;999.90;;;;;;;;;;5008634;28;20486;-78
2021/09/28 13:38:23;;;;;;;1225.07;999.90;;;;;;;;;;5008831;28;20379;-78
2021/09/28 13:40:49;;;;;;;1227.15;999.90;;;;;;;;;;5008363;28;20029;-77
2021/09/28 13:43:16;;;;;;;1231.32;999.90;;;;;;;;;;5011032;28;20492;-78
2021/09/28 13:45:42;;;;;;;1229.70;999.90;;;;;;;;;;5010045;28;20069;-77
2021/09/28 13:48:12;;;;;;;1236.00;999.90;;;;;;;;;;5006862;28;20030;-75
2021/09/28 13:50:38;;;;;;;1229.80;999.90;;;;;;;;;;5002797;28;20033;-77
2021/09/28 13:53:05;;;;;;;1228.03;999.90;;;;;;;;;;5008887;28;20049;-77
2021/09/28 13:55:31;;;;;;;1227.78;999.90;;;;;;;;;;5012584;28;20037;-78